Main page
METAR-TAF:

METAR-TAF

Airports :

Cambridge, England

Cambridge Airport

latitude: 52-12N, longitude: 000-11E, elevation: 15 m

Current weather observation

The report was made 25 minutes ago, at 10:50 UTC
Wind 16 kt from the West/Southwest
Temperature 10°C
Humidity 57%
Pressure 997 hPa
Visibility 10 km or more
no clouds below 1500 m and no cumulonimbus

METAR: EGSC 231050Z 24016KT CAVOK 10/02 Q0997

Time: 11:15 (11:15 UTC)

Forecast

The report was made 3 hours and 10 minutes ago, at 08:05 UTC
Forecast valid from 23 at 09 UTC to 23 at 18 UTC
Wind 14 kt from the West/Southwest
Visibility 10 km or more
Scattered clouds at a height of 2500 ft
Temporary
from 23 at 09 UTC to 23 at 16 UTC
Wind 18 kt from the West/Southwest with gusts up to 28 kt

TAF: EGSC 230805Z 2309/2318 24014KT 9999 SCT025 TEMPO 2309/2316 24018G28KT

Weather observations and forecasts of more than 4000 airports (METAR and TAF reports).

The available stations are represented by yellow and red dots on the map.

Hover mouse over dot to see the name of the station.

Then click to see weather observations and forecasts.

To change the map : click on the green buttons with a black cross to zoom in, on the green button with a dash to zoom out, or on the green arrows for adjacent maps.


METAR-TAF: